sensor_id;sensor_type;location;lat;lon;timestamp;P1;durP1;ratioP1;P2;durP2;ratioP2
33367;SDS011;19724;51.114;13.906;2022-11-14T00:01:57;37.97;;;22.55;;
33367;SDS011;19724;51.114;13.906;2022-11-14T00:04:23;29.67;;;22.00;;
33367;SDS011;19724;51.114;13.906;2022-11-14T00:06:48;33.63;;;22.15;;
33367;SDS011;19724;51.114;13.906;2022-11-14T00:09:14;30.65;;;20.52;;
33367;SDS011;19724;51.114;13.906;2022-11-14T00:11:40;34.00;;;20.92;;
33367;SDS011;19724;51.114;13.906;2022-11-14T00:14:05;32.20;;;21.17;;
33367;SDS011;19724;51.114;13.906;2022-11-14T00:16:31;32.50;;;21.05;;
33367;SDS011;19724;51.114;13.906;2022-11-14T00:18:57;29.77;;;21.63;;
33367;SDS011;19724;51.114;13.906;2022-11-14T00:21:22;31.85;;;20.98;;
33367;SDS011;19724;51.114;13.906;2022-11-14T00:23:48;27.42;;;19.08;;
33367;SDS011;19724;51.114;13.906;2022-11-14T00:26:13;31.30;;;21.77;;
33367;SDS011;19724;51.114;13.906;2022-11-14T00:28:39;28.05;;;20.50;;
33367;SDS011;19724;51.114;13.906;2022-11-14T00:31:04;30.92;;;20.38;;
33367;SDS011;19724;51.114;13.906;2022-11-14T00:33:30;26.52;;;18.90;;
33367;SDS011;19724;51.114;13.906;2022-11-14T00:35:56;26.67;;;17.38;;
33367;SDS011;19724;51.114;13.906;2022-11-14T00:38:22;27.63;;;19.77;;
33367;SDS011;19724;51.114;13.906;2022-11-14T00:40:47;28.00;;;19.42;;
33367;SDS011;19724;51.114;13.906;2022-11-14T00:43:13;26.10;;;18.02;;
33367;SDS011;19724;51.114;13.906;2022-11-14T00:45:38;30.08;;;18.80;;
33367;SDS011;19724;51.114;13.906;2022-11-14T00:48:06;27.02;;;19.08;;
33367;SDS011;19724;51.114;13.906;2022-11-14T00:50:32;30.88;;;18.92;;
33367;SDS011;19724;51.114;13.906;2022-11-14T00:52:57;29.13;;;18.40;;
33367;SDS011;19724;51.114;13.906;2022-11-14T00:55:23;25.90;;;18.67;;
33367;SDS011;19724;51.114;13.906;2022-11-14T00:57:48;25.42;;;17.00;;
33367;SDS011;19724;51.114;13.906;2022-11-14T01:00:14;28.02;;;18.23;;
33367;SDS011;19724;51.114;13.906;2022-11-14T01:02:39;27.02;;;19.23;;
33367;SDS011;19724;51.114;13.906;2022-11-14T01:05:05;27.13;;;17.48;;
33367;SDS011;19724;51.114;13.906;2022-11-14T01:07:31;25.33;;;18.30;;
33367;SDS011;19724;51.114;13.906;2022-11-14T01:09:56;26.45;;;17.02;;
33367;SDS011;19724;51.114;13.906;2022-11-14T01:12:22;24.20;;;17.23;;
33367;SDS011;19724;51.114;13.906;2022-11-14T01:14:47;26.75;;;17.45;;
33367;SDS011;19724;51.114;13.906;2022-11-14T01:17:13;25.58;;;17.27;;
33367;SDS011;19724;51.114;13.906;2022-11-14T01:19:39;29.73;;;17.60;;
33367;SDS011;19724;51.114;13.906;2022-11-14T01:22:05;26.55;;;18.40;;
33367;SDS011;19724;51.114;13.906;2022-11-14T01:24:31;24.83;;;16.38;;
33367;SDS011;19724;51.114;13.906;2022-11-14T01:26:57;26.50;;;17.67;;
33367;SDS011;19724;51.114;13.906;2022-11-14T01:29:23;26.65;;;17.65;;
33367;SDS011;19724;51.114;13.906;2022-11-14T01:31:49;26.08;;;18.02;;
33367;SDS011;19724;51.114;13.906;2022-11-14T01:34:14;25.10;;;17.55;;
33367;SDS011;19724;51.114;13.906;2022-11-14T01:36:40;23.92;;;16.92;;
33367;SDS011;19724;51.114;13.906;2022-11-14T01:39:06;24.50;;;17.10;;
33367;SDS011;19724;51.114;13.906;2022-11-14T01:41:31;23.95;;;17.98;;
33367;SDS011;19724;51.114;13.906;2022-11-14T01:43:57;25.83;;;17.08;;
33367;SDS011;19724;51.114;13.906;2022-11-14T01:48:56;26.73;;;19.15;;
33367;SDS011;19724;51.114;13.906;2022-11-14T01:53:54;29.00;;;18.63;;
33367;SDS011;19724;51.114;13.906;2022-11-14T01:56:31;29.55;;;18.55;;
33367;SDS011;19724;51.114;13.906;2022-11-14T01:59:00;28.65;;;18.20;;
33367;SDS011;19724;51.114;13.906;2022-11-14T02:01:31;25.10;;;17.65;;
33367;SDS011;19724;51.114;13.906;2022-11-14T02:03:59;23.85;;;17.75;;
33367;SDS011;19724;51.114;13.906;2022-11-14T02:06:28;24.88;;;17.85;;
33367;SDS011;19724;51.114;13.906;2022-11-14T02:08:55;26.63;;;17.10;;
33367;SDS011;19724;51.114;13.906;2022-11-14T02:11:23;29.65;;;18.67;;
33367;SDS011;19724;51.114;13.906;2022-11-14T02:13:53;26.58;;;18.10;;
33367;SDS011;19724;51.114;13.906;2022-11-14T02:16:18;26.15;;;18.17;;
33367;SDS011;19724;51.114;13.906;2022-11-14T02:18:44;27.40;;;17.13;;
33367;SDS011;19724;51.114;13.906;2022-11-14T02:21:10;24.38;;;16.33;;
33367;SDS011;19724;51.114;13.906;2022-11-14T02:23:35;26.50;;;17.80;;
33367;SDS011;19724;51.114;13.906;2022-11-14T02:26:01;24.77;;;16.08;;
33367;SDS011;19724;51.114;13.906;2022-11-14T02:28:26;25.52;;;18.10;;
33367;SDS011;19724;51.114;13.906;2022-11-14T02:30:52;26.35;;;18.17;;
33367;SDS011;19724;51.114;13.906;2022-11-14T02:33:18;27.58;;;17.67;;
33367;SDS011;19724;51.114;13.906;2022-11-14T02:35:44;28.98;;;18.75;;
33367;SDS011;19724;51.114;13.906;2022-11-14T02:38:16;24.63;;;18.10;;
33367;SDS011;19724;51.114;13.906;2022-11-14T02:40:41;25.58;;;16.40;;
33367;SDS011;19724;51.114;13.906;2022-11-14T02:43:07;24.45;;;17.20;;
33367;SDS011;19724;51.114;13.906;2022-11-14T02:45:33;24.58;;;15.80;;
33367;SDS011;19724;51.114;13.906;2022-11-14T02:47:58;25.40;;;18.02;;
33367;SDS011;19724;51.114;13.906;2022-11-14T02:50:24;24.85;;;17.02;;
33367;SDS011;19724;51.114;13.906;2022-11-14T02:52:49;24.60;;;17.58;;
33367;SDS011;19724;51.114;13.906;2022-11-14T02:55:17;23.38;;;16.20;;
33367;SDS011;19724;51.114;13.906;2022-11-14T02:57:43;27.90;;;18.50;;
33367;SDS011;19724;51.114;13.906;2022-11-14T03:00:09;24.40;;;16.65;;
33367;SDS011;19724;51.114;13.906;2022-11-14T03:02:35;26.55;;;16.98;;
33367;SDS011;19724;51.114;13.906;2022-11-14T03:05:01;27.25;;;17.60;;
33367;SDS011;19724;51.114;13.906;2022-11-14T03:07:27;25.80;;;17.90;;
33367;SDS011;19724;51.114;13.906;2022-11-14T03:09:52;26.98;;;18.33;;
33367;SDS011;19724;51.114;13.906;2022-11-14T03:12:18;27.42;;;18.17;;
33367;SDS011;19724;51.114;13.906;2022-11-14T03:14:44;28.55;;;18.85;;
33367;SDS011;19724;51.114;13.906;2022-11-14T03:17:10;28.60;;;17.40;;
33367;SDS011;19724;51.114;13.906;2022-11-14T03:19:35;27.25;;;17.27;;
33367;SDS011;19724;51.114;13.906;2022-11-14T03:22:01;29.02;;;17.55;;
33367;SDS011;19724;51.114;13.906;2022-11-14T03:24:26;29.10;;;18.42;;
33367;SDS011;19724;51.114;13.906;2022-11-14T03:26:52;29.17;;;18.20;;
33367;SDS011;19724;51.114;13.906;2022-11-14T03:29:18;28.60;;;19.77;;
33367;SDS011;19724;51.114;13.906;2022-11-14T03:31:43;26.00;;;18.65;;
33367;SDS011;19724;51.114;13.906;2022-11-14T03:34:09;29.05;;;18.27;;
33367;SDS011;19724;51.114;13.906;2022-11-14T03:36:35;28.20;;;18.90;;
33367;SDS011;19724;51.114;13.906;2022-11-14T03:39:02;28.48;;;18.60;;
33367;SDS011;19724;51.114;13.906;2022-11-14T03:41:28;25.58;;;17.52;;
33367;SDS011;19724;51.114;13.906;2022-11-14T03:43:54;26.10;;;18.45;;
33367;SDS011;19724;51.114;13.906;2022-11-14T03:46:20;26.70;;;18.05;;
33367;SDS011;19724;51.114;13.906;2022-11-14T03:48:46;27.88;;;18.55;;
33367;SDS011;19724;51.114;13.906;2022-11-14T03:51:11;26.73;;;19.20;;
33367;SDS011;19724;51.114;13.906;2022-11-14T03:53:37;24.60;;;17.63;;
33367;SDS011;19724;51.114;13.906;2022-11-14T03:56:03;24.98;;;18.25;;
33367;SDS011;19724;51.114;13.906;2022-11-14T03:58:29;25.58;;;17.85;;
33367;SDS011;19724;51.114;13.906;2022-11-14T04:00:54;25.38;;;19.92;;
33367;SDS011;19724;51.114;13.906;2022-11-14T04:03:21;30.23;;;19.17;;
33367;SDS011;19724;51.114;13.906;2022-11-14T04:05:47;26.48;;;18.42;;
33367;SDS011;19724;51.114;13.906;2022-11-14T04:08:13;27.35;;;17.48;;
33367;SDS011;19724;51.114;13.906;2022-11-14T04:10:39;29.60;;;19.33;;
33367;SDS011;19724;51.114;13.906;2022-11-14T04:13:05;26.48;;;18.25;;
33367;SDS011;19724;51.114;13.906;2022-11-14T04:15:31;24.45;;;17.88;;
33367;SDS011;19724;51.114;13.906;2022-11-14T04:17:57;25.10;;;17.92;;
33367;SDS011;19724;51.114;13.906;2022-11-14T04:20:22;27.80;;;18.45;;
33367;SDS011;19724;51.114;13.906;2022-11-14T04:22:48;25.80;;;18.52;;
33367;SDS011;19724;51.114;13.906;2022-11-14T04:25:14;25.75;;;17.80;;
33367;SDS011;19724;51.114;13.906;2022-11-14T04:27:39;24.60;;;17.17;;
33367;SDS011;19724;51.114;13.906;2022-11-14T04:30:05;24.92;;;19.17;;
33367;SDS011;19724;51.114;13.906;2022-11-14T04:32:31;28.63;;;17.77;;
33367;SDS011;19724;51.114;13.906;2022-11-14T04:34:57;30.50;;;19.65;;
33367;SDS011;19724;51.114;13.906;2022-11-14T04:37:23;27.83;;;18.27;;
33367;SDS011;19724;51.114;13.906;2022-11-14T04:39:49;31.58;;;19.90;;
33367;SDS011;19724;51.114;13.906;2022-11-14T04:42:14;25.75;;;19.60;;
33367;SDS011;19724;51.114;13.906;2022-11-14T04:44:40;26.52;;;18.00;;
33367;SDS011;19724;51.114;13.906;2022-11-14T04:47:05;29.00;;;18.15;;
33367;SDS011;19724;51.114;13.906;2022-11-14T04:49:31;36.88;;;20.00;;
33367;SDS011;19724;51.114;13.906;2022-11-14T04:51:57;25.95;;;18.27;;
33367;SDS011;19724;51.114;13.906;2022-11-14T04:54:22;25.05;;;19.48;;
33367;SDS011;19724;51.114;13.906;2022-11-14T04:56:48;25.20;;;19.27;;
33367;SDS011;19724;51.114;13.906;2022-11-14T04:59:13;31.33;;;20.27;;
33367;SDS011;19724;51.114;13.906;2022-11-14T05:01:39;30.15;;;19.80;;
33367;SDS011;19724;51.114;13.906;2022-11-14T05:04:05;28.58;;;19.70;;
33367;SDS011;19724;51.114;13.906;2022-11-14T05:06:30;29.92;;;20.98;;
33367;SDS011;19724;51.114;13.906;2022-11-14T05:08:56;28.90;;;20.17;;
33367;SDS011;19724;51.114;13.906;2022-11-14T05:11:22;32.20;;;22.08;;
33367;SDS011;19724;51.114;13.906;2022-11-14T05:13:47;32.58;;;20.20;;
33367;SDS011;19724;51.114;13.906;2022-11-14T05:16:13;29.20;;;20.38;;
33367;SDS011;19724;51.114;13.906;2022-11-14T05:18:39;38.67;;;23.77;;
33367;SDS011;19724;51.114;13.906;2022-11-14T05:21:05;29.08;;;19.42;;
33367;SDS011;19724;51.114;13.906;2022-11-14T05:23:31;30.92;;;20.88;;
33367;SDS011;19724;51.114;13.906;2022-11-14T05:26:00;28.23;;;19.83;;
33367;SDS011;19724;51.114;13.906;2022-11-14T05:28:31;32.53;;;21.37;;
33367;SDS011;19724;51.114;13.906;2022-11-14T05:31:06;28.27;;;19.13;;
33367;SDS011;19724;51.114;13.906;2022-11-14T05:33:46;31.42;;;20.05;;
33367;SDS011;19724;51.114;13.906;2022-11-14T05:36:15;30.95;;;21.33;;
33367;SDS011;19724;51.114;13.906;2022-11-14T05:38:56;29.00;;;20.70;;
33367;SDS011;19724;51.114;13.906;2022-11-14T05:41:22;29.17;;;20.15;;
33367;SDS011;19724;51.114;13.906;2022-11-14T05:43:47;30.90;;;20.90;;
33367;SDS011;19724;51.114;13.906;2022-11-14T05:46:13;28.77;;;19.60;;
33367;SDS011;19724;51.114;13.906;2022-11-14T05:48:40;28.85;;;20.83;;
33367;SDS011;19724;51.114;13.906;2022-11-14T05:51:08;32.63;;;22.58;;
33367;SDS011;19724;51.114;13.906;2022-11-14T05:53:35;29.17;;;20.42;;
33367;SDS011;19724;51.114;13.906;2022-11-14T05:56:02;31.52;;;22.17;;
33367;SDS011;19724;51.114;13.906;2022-11-14T05:58:32;36.83;;;22.25;;
33367;SDS011;19724;51.114;13.906;2022-11-14T06:01:31;34.72;;;23.23;;
33367;SDS011;19724;51.114;13.906;2022-11-14T06:03:51;33.33;;;21.83;;
33367;SDS011;19724;51.114;13.906;2022-11-14T06:06:18;35.33;;;23.58;;
33367;SDS011;19724;51.114;13.906;2022-11-14T06:08:44;32.30;;;22.48;;
33367;SDS011;19724;51.114;13.906;2022-11-14T06:11:12;37.22;;;23.38;;
33367;SDS011;19724;51.114;13.906;2022-11-14T06:13:39;34.55;;;22.15;;
33367;SDS011;19724;51.114;13.906;2022-11-14T06:16:06;37.10;;;25.17;;
33367;SDS011;19724;51.114;13.906;2022-11-14T06:18:37;33.85;;;23.70;;
33367;SDS011;19724;51.114;13.906;2022-11-14T06:21:04;34.03;;;22.67;;
33367;SDS011;19724;51.114;13.906;2022-11-14T06:23:32;34.30;;;23.40;;
33367;SDS011;19724;51.114;13.906;2022-11-14T06:26:03;35.78;;;23.33;;
33367;SDS011;19724;51.114;13.906;2022-11-14T06:28:30;34.75;;;23.75;;
33367;SDS011;19724;51.114;13.906;2022-11-14T06:31:00;31.90;;;22.70;;
33367;SDS011;19724;51.114;13.906;2022-11-14T06:33:27;33.83;;;21.65;;
33367;SDS011;19724;51.114;13.906;2022-11-14T06:35:57;36.33;;;23.90;;
33367;SDS011;19724;51.114;13.906;2022-11-14T06:38:24;34.30;;;24.52;;
33367;SDS011;19724;51.114;13.906;2022-11-14T06:40:49;34.22;;;22.98;;
33367;SDS011;19724;51.114;13.906;2022-11-14T06:43:15;32.47;;;23.20;;
33367;SDS011;19724;51.114;13.906;2022-11-14T06:45:41;37.95;;;25.17;;
33367;SDS011;19724;51.114;13.906;2022-11-14T06:48:06;35.33;;;23.63;;
33367;SDS011;19724;51.114;13.906;2022-11-14T06:50:32;36.63;;;24.33;;
33367;SDS011;19724;51.114;13.906;2022-11-14T06:52:58;33.08;;;22.85;;
33367;SDS011;19724;51.114;13.906;2022-11-14T06:55:23;36.30;;;23.55;;
33367;SDS011;19724;51.114;13.906;2022-11-14T06:57:52;36.25;;;24.15;;
33367;SDS011;19724;51.114;13.906;2022-11-14T07:00:19;39.50;;;24.50;;
33367;SDS011;19724;51.114;13.906;2022-11-14T07:02:45;35.85;;;23.40;;
33367;SDS011;19724;51.114;13.906;2022-11-14T07:05:12;36.13;;;24.38;;
33367;SDS011;19724;51.114;13.906;2022-11-14T07:07:37;33.25;;;23.63;;
33367;SDS011;19724;51.114;13.906;2022-11-14T07:10:03;34.95;;;23.00;;
33367;SDS011;19724;51.114;13.906;2022-11-14T07:12:29;43.10;;;24.92;;
33367;SDS011;19724;51.114;13.906;2022-11-14T07:14:56;31.77;;;21.95;;
33367;SDS011;19724;51.114;13.906;2022-11-14T07:17:22;32.45;;;23.13;;
33367;SDS011;19724;51.114;13.906;2022-11-14T07:19:48;35.65;;;24.67;;
33367;SDS011;19724;51.114;13.906;2022-11-14T07:22:13;36.38;;;24.02;;
33367;SDS011;19724;51.114;13.906;2022-11-14T07:24:39;36.10;;;25.55;;
33367;SDS011;19724;51.114;13.906;2022-11-14T07:27:04;34.75;;;23.52;;
33367;SDS011;19724;51.114;13.906;2022-11-14T07:29:32;31.58;;;22.08;;
33367;SDS011;19724;51.114;13.906;2022-11-14T07:31:58;35.17;;;23.40;;
33367;SDS011;19724;51.114;13.906;2022-11-14T07:34:24;35.63;;;24.20;;
33367;SDS011;19724;51.114;13.906;2022-11-14T07:36:49;35.55;;;24.13;;
33367;SDS011;19724;51.114;13.906;2022-11-14T07:39:15;34.03;;;22.75;;
33367;SDS011;19724;51.114;13.906;2022-11-14T07:41:41;38.42;;;23.95;;
33367;SDS011;19724;51.114;13.906;2022-11-14T07:44:06;33.70;;;24.50;;
33367;SDS011;19724;51.114;13.906;2022-11-14T07:46:32;33.17;;;22.73;;
33367;SDS011;19724;51.114;13.906;2022-11-14T07:48:58;30.60;;;22.67;;
33367;SDS011;19724;51.114;13.906;2022-11-14T07:51:23;34.85;;;24.20;;
33367;SDS011;19724;51.114;13.906;2022-11-14T07:53:50;41.40;;;25.67;;
33367;SDS011;19724;51.114;13.906;2022-11-14T07:56:17;33.97;;;22.88;;
33367;SDS011;19724;51.114;13.906;2022-11-14T07:58:44;35.35;;;23.17;;
33367;SDS011;19724;51.114;13.906;2022-11-14T08:01:11;34.70;;;22.48;;
33367;SDS011;19724;51.114;13.906;2022-11-14T08:03:37;30.65;;;22.95;;
33367;SDS011;19724;51.114;13.906;2022-11-14T08:06:04;33.28;;;22.83;;
33367;SDS011;19724;51.114;13.906;2022-11-14T08:08:32;37.65;;;24.75;;
33367;SDS011;19724;51.114;13.906;2022-11-14T08:10:58;29.65;;;21.73;;
33367;SDS011;19724;51.114;13.906;2022-11-14T08:13:24;33.85;;;23.17;;
33367;SDS011;19724;51.114;13.906;2022-11-14T08:15:51;33.08;;;22.95;;
33367;SDS011;19724;51.114;13.906;2022-11-14T08:18:17;34.45;;;23.95;;
33367;SDS011;19724;51.114;13.906;2022-11-14T08:20:42;35.88;;;22.65;;
33367;SDS011;19724;51.114;13.906;2022-11-14T08:23:09;31.23;;;21.50;;
33367;SDS011;19724;51.114;13.906;2022-11-14T08:25:35;30.70;;;21.02;;
33367;SDS011;19724;51.114;13.906;2022-11-14T08:28:00;29.80;;;21.33;;
33367;SDS011;19724;51.114;13.906;2022-11-14T08:30:26;31.60;;;21.90;;
33367;SDS011;19724;51.114;13.906;2022-11-14T08:32:53;32.55;;;21.42;;
33367;SDS011;19724;51.114;13.906;2022-11-14T08:35:18;31.25;;;22.23;;
33367;SDS011;19724;51.114;13.906;2022-11-14T08:37:44;30.17;;;21.27;;
33367;SDS011;19724;51.114;13.906;2022-11-14T08:40:10;27.52;;;19.98;;
33367;SDS011;19724;51.114;13.906;2022-11-14T08:42:36;33.00;;;22.50;;
33367;SDS011;19724;51.114;13.906;2022-11-14T08:45:02;33.55;;;22.58;;
33367;SDS011;19724;51.114;13.906;2022-11-14T08:47:29;28.10;;;20.40;;
33367;SDS011;19724;51.114;13.906;2022-11-14T08:49:55;28.90;;;20.05;;
33367;SDS011;19724;51.114;13.906;2022-11-14T08:52:21;29.17;;;19.77;;
33367;SDS011;19724;51.114;13.906;2022-11-14T08:54:46;26.75;;;19.70;;
33367;SDS011;19724;51.114;13.906;2022-11-14T08:57:12;27.67;;;20.35;;
33367;SDS011;19724;51.114;13.906;2022-11-14T08:59:39;30.35;;;21.52;;
33367;SDS011;19724;51.114;13.906;2022-11-14T09:02:05;25.88;;;20.00;;
33367;SDS011;19724;51.114;13.906;2022-11-14T09:04:33;26.77;;;18.23;;
33367;SDS011;19724;51.114;13.906;2022-11-14T09:06:59;25.95;;;19.92;;
33367;SDS011;19724;51.114;13.906;2022-11-14T09:09:24;29.88;;;20.33;;
33367;SDS011;19724;51.114;13.906;2022-11-14T09:11:50;29.55;;;20.00;;
33367;SDS011;19724;51.114;13.906;2022-11-14T09:14:15;24.42;;;19.27;;
33367;SDS011;19724;51.114;13.906;2022-11-14T09:16:41;26.63;;;20.33;;
33367;SDS011;19724;51.114;13.906;2022-11-14T09:19:06;26.98;;;19.90;;
33367;SDS011;19724;51.114;13.906;2022-11-14T09:21:32;29.33;;;19.27;;
33367;SDS011;19724;51.114;13.906;2022-11-14T09:23:58;26.42;;;20.70;;
33367;SDS011;19724;51.114;13.906;2022-11-14T09:26:23;24.25;;;19.52;;
33367;SDS011;19724;51.114;13.906;2022-11-14T09:28:49;29.77;;;20.40;;
33367;SDS011;19724;51.114;13.906;2022-11-14T09:31:14;28.65;;;20.10;;
33367;SDS011;19724;51.114;13.906;2022-11-14T09:33:40;27.52;;;20.08;;
33367;SDS011;19724;51.114;13.906;2022-11-14T09:36:06;27.85;;;20.40;;
33367;SDS011;19724;51.114;13.906;2022-11-14T09:38:34;29.52;;;21.90;;
33367;SDS011;19724;51.114;13.906;2022-11-14T09:46:55;29.60;;;21.13;;
33367;SDS011;19724;51.114;13.906;2022-11-14T09:49:29;25.02;;;18.08;;
33367;SDS011;19724;51.114;13.906;2022-11-14T09:54:51;26.83;;;20.40;;
33367;SDS011;19724;51.114;13.906;2022-11-14T09:57:23;28.13;;;20.10;;
33367;SDS011;19724;51.114;13.906;2022-11-14T09:59:50;25.63;;;19.65;;
33367;SDS011;19724;51.114;13.906;2022-11-14T10:05:29;27.40;;;20.65;;
33367;SDS011;19724;51.114;13.906;2022-11-14T10:08:09;27.13;;;19.55;;
33367;SDS011;19724;51.114;13.906;2022-11-14T10:10:58;27.30;;;21.80;;
33367;SDS011;19724;51.114;13.906;2022-11-14T10:19:09;28.42;;;19.98;;
33367;SDS011;19724;51.114;13.906;2022-11-14T10:27:03;26.08;;;20.30;;
33367;SDS011;19724;51.114;13.906;2022-11-14T10:32:27;26.88;;;19.63;;
33367;SDS011;19724;51.114;13.906;2022-11-14T10:40:43;26.55;;;19.42;;
33367;SDS011;19724;51.114;13.906;2022-11-14T10:43:29;27.90;;;20.52;;
33367;SDS011;19724;51.114;13.906;2022-11-14T10:48:44;27.85;;;20.30;;
33367;SDS011;19724;51.114;13.906;2022-11-14T10:56:30;26.42;;;19.63;;
33367;SDS011;19724;51.114;13.906;2022-11-14T10:58:56;24.92;;;17.58;;
33367;SDS011;19724;51.114;13.906;2022-11-14T11:01:33;24.98;;;16.77;;
33367;SDS011;19724;51.114;13.906;2022-11-14T11:06:51;23.83;;;17.07;;
33367;SDS011;19724;51.114;13.906;2022-11-14T11:09:20;25.42;;;18.77;;
33367;SDS011;19724;51.114;13.906;2022-11-14T11:12:06;22.45;;;16.50;;
33367;SDS011;19724;51.114;13.906;2022-11-14T11:14:38;25.23;;;17.65;;
33367;SDS011;19724;51.114;13.906;2022-11-14T11:19:35;24.67;;;18.17;;
33367;SDS011;19724;51.114;13.906;2022-11-14T11:22:01;26.05;;;18.60;;
33367;SDS011;19724;51.114;13.906;2022-11-14T11:24:35;25.88;;;18.50;;
33367;SDS011;19724;51.114;13.906;2022-11-14T11:27:11;21.45;;;16.35;;
33367;SDS011;19724;51.114;13.906;2022-11-14T11:30:05;22.65;;;17.27;;
33367;SDS011;19724;51.114;13.906;2022-11-14T11:32:45;21.58;;;16.25;;
33367;SDS011;19724;51.114;13.906;2022-11-14T11:35:14;24.02;;;17.15;;
33367;SDS011;19724;51.114;13.906;2022-11-14T11:40:23;21.45;;;16.63;;
33367;SDS011;19724;51.114;13.906;2022-11-14T11:42:53;28.27;;;18.60;;
33367;SDS011;19724;51.114;13.906;2022-11-14T11:45:21;26.35;;;17.45;;
33367;SDS011;19724;51.114;13.906;2022-11-14T11:47:49;24.13;;;17.17;;
33367;SDS011;19724;51.114;13.906;2022-11-14T11:50:22;23.23;;;17.48;;
33367;SDS011;19724;51.114;13.906;2022-11-14T11:55:40;25.48;;;18.42;;
33367;SDS011;19724;51.114;13.906;2022-11-14T12:00:33;26.55;;;19.02;;
33367;SDS011;19724;51.114;13.906;2022-11-14T12:02:59;24.25;;;16.77;;
33367;SDS011;19724;51.114;13.906;2022-11-14T12:05:28;25.35;;;18.52;;
33367;SDS011;19724;51.114;13.906;2022-11-14T12:11:03;23.33;;;16.20;;
33367;SDS011;19724;51.114;13.906;2022-11-14T12:16:21;23.88;;;16.90;;
33367;SDS011;19724;51.114;13.906;2022-11-14T12:30:33;26.83;;;18.60;;
33367;SDS011;19724;51.114;13.906;2022-11-14T12:33:07;27.95;;;17.60;;
33367;SDS011;19724;51.114;13.906;2022-11-14T12:35:36;22.48;;;17.35;;
33367;SDS011;19724;51.114;13.906;2022-11-14T12:38:12;22.23;;;17.27;;
33367;SDS011;19724;51.114;13.906;2022-11-14T12:40:40;20.77;;;16.48;;
33367;SDS011;19724;51.114;13.906;2022-11-14T12:43:32;25.30;;;17.10;;
33367;SDS011;19724;51.114;13.906;2022-11-14T12:46:01;20.38;;;15.13;;
33367;SDS011;19724;51.114;13.906;2022-11-14T12:48:33;20.20;;;15.10;;
33367;SDS011;19724;51.114;13.906;2022-11-14T12:53:48;23.17;;;17.23;;
33367;SDS011;19724;51.114;13.906;2022-11-14T13:12:56;22.95;;;17.15;;
33367;SDS011;19724;51.114;13.906;2022-11-14T13:16:21;24.40;;;17.45;;
33367;SDS011;19724;51.114;13.906;2022-11-14T13:25:13;23.20;;;18.30;;
33367;SDS011;19724;51.114;13.906;2022-11-14T13:27:34;26.63;;;17.20;;
33367;SDS011;19724;51.114;13.906;2022-11-14T13:30:02;21.65;;;16.52;;
33367;SDS011;19724;51.114;13.906;2022-11-14T13:32:52;27.00;;;19.95;;
33367;SDS011;19724;51.114;13.906;2022-11-14T13:35:41;22.13;;;17.58;;
33367;SDS011;19724;51.114;13.906;2022-11-14T13:41:34;26.85;;;19.92;;
33367;SDS011;19724;51.114;13.906;2022-11-14T13:51:56;27.20;;;18.75;;
33367;SDS011;19724;51.114;13.906;2022-11-14T13:54:22;23.38;;;17.63;;
33367;SDS011;19724;51.114;13.906;2022-11-14T14:04:52;27.48;;;20.30;;
33367;SDS011;19724;51.114;13.906;2022-11-14T14:10:44;25.98;;;19.10;;
33367;SDS011;19724;51.114;13.906;2022-11-14T14:15:47;28.38;;;20.13;;
33367;SDS011;19724;51.114;13.906;2022-11-14T14:21:28;31.10;;;22.10;;
33367;SDS011;19724;51.114;13.906;2022-11-14T14:32:30;28.02;;;21.52;;
33367;SDS011;19724;51.114;13.906;2022-11-14T14:34:57;36.00;;;26.40;;
33367;SDS011;19724;51.114;13.906;2022-11-14T14:37:25;32.15;;;22.95;;
33367;SDS011;19724;51.114;13.906;2022-11-14T14:39:59;30.42;;;23.00;;
33367;SDS011;19724;51.114;13.906;2022-11-14T14:42:33;33.50;;;24.13;;
33367;SDS011;19724;51.114;13.906;2022-11-14T14:45:03;34.20;;;23.83;;
33367;SDS011;19724;51.114;13.906;2022-11-14T14:47:41;31.73;;;23.37;;
33367;SDS011;19724;51.114;13.906;2022-11-14T14:50:19;37.03;;;24.30;;
33367;SDS011;19724;51.114;13.906;2022-11-14T14:52:53;34.67;;;25.15;;
33367;SDS011;19724;51.114;13.906;2022-11-14T14:55:25;37.75;;;25.95;;
33367;SDS011;19724;51.114;13.906;2022-11-14T14:57:52;32.70;;;23.80;;
33367;SDS011;19724;51.114;13.906;2022-11-14T15:00:20;35.33;;;25.02;;
33367;SDS011;19724;51.114;13.906;2022-11-14T15:02:54;33.60;;;25.73;;
33367;SDS011;19724;51.114;13.906;2022-11-14T15:05:26;36.10;;;26.40;;
33367;SDS011;19724;51.114;13.906;2022-11-14T15:07:57;36.92;;;25.10;;
33367;SDS011;19724;51.114;13.906;2022-11-14T15:10:25;33.97;;;25.13;;
33367;SDS011;19724;51.114;13.906;2022-11-14T15:12:53;34.00;;;24.48;;
33367;SDS011;19724;51.114;13.906;2022-11-14T15:15:20;37.28;;;26.77;;
33367;SDS011;19724;51.114;13.906;2022-11-14T15:17:49;40.00;;;26.60;;
33367;SDS011;19724;51.114;13.906;2022-11-14T15:20:20;39.90;;;25.48;;
33367;SDS011;19724;51.114;13.906;2022-11-14T15:25:59;37.50;;;25.67;;
33367;SDS011;19724;51.114;13.906;2022-11-14T15:28:30;34.30;;;23.17;;
33367;SDS011;19724;51.114;13.906;2022-11-14T15:30:56;39.70;;;28.40;;
33367;SDS011;19724;51.114;13.906;2022-11-14T15:33:30;37.03;;;25.83;;
33367;SDS011;19724;51.114;13.906;2022-11-14T15:36:11;40.85;;;26.17;;
33367;SDS011;19724;51.114;13.906;2022-11-14T15:38:36;38.78;;;27.60;;
33367;SDS011;19724;51.114;13.906;2022-11-14T15:41:22;40.13;;;26.75;;
33367;SDS011;19724;51.114;13.906;2022-11-14T15:43:50;37.33;;;27.13;;
33367;SDS011;19724;51.114;13.906;2022-11-14T15:46:39;43.97;;;29.88;;
33367;SDS011;19724;51.114;13.906;2022-11-14T15:49:06;36.42;;;26.95;;
33367;SDS011;19724;51.114;13.906;2022-11-14T15:51:37;37.88;;;28.88;;
33367;SDS011;19724;51.114;13.906;2022-11-14T15:56:47;37.83;;;26.45;;
33367;SDS011;19724;51.114;13.906;2022-11-14T15:59:13;39.45;;;27.88;;
33367;SDS011;19724;51.114;13.906;2022-11-14T16:01:39;43.72;;;30.52;;
33367;SDS011;19724;51.114;13.906;2022-11-14T16:04:15;39.05;;;26.88;;
33367;SDS011;19724;51.114;13.906;2022-11-14T16:06:42;42.00;;;29.58;;
33367;SDS011;19724;51.114;13.906;2022-11-14T16:09:11;44.03;;;31.50;;
33367;SDS011;19724;51.114;13.906;2022-11-14T16:11:42;44.10;;;29.05;;
33367;SDS011;19724;51.114;13.906;2022-11-14T16:14:08;42.33;;;29.67;;
33367;SDS011;19724;51.114;13.906;2022-11-14T16:16:34;41.90;;;30.45;;
33367;SDS011;19724;51.114;13.906;2022-11-14T16:19:00;47.50;;;30.25;;
33367;SDS011;19724;51.114;13.906;2022-11-14T16:21:25;40.15;;;29.10;;
33367;SDS011;19724;51.114;13.906;2022-11-14T16:23:51;46.75;;;31.00;;
33367;SDS011;19724;51.114;13.906;2022-11-14T16:26:17;45.97;;;32.55;;
33367;SDS011;19724;51.114;13.906;2022-11-14T16:28:43;49.95;;;31.58;;
33367;SDS011;19724;51.114;13.906;2022-11-14T16:31:12;48.72;;;33.63;;
33367;SDS011;19724;51.114;13.906;2022-11-14T16:33:38;43.63;;;31.45;;
33367;SDS011;19724;51.114;13.906;2022-11-14T16:36:04;48.00;;;32.22;;
33367;SDS011;19724;51.114;13.906;2022-11-14T16:38:30;46.47;;;33.65;;